Decoded Metar for KLKR (LANCASTER in SC, USA) (IATA:LKR) | Meteo·Mobile Aviation Weather
aviador You're here:

KLKR Decoded Metar

LANCASTER in SC, USA
Report Time2019-10-22 13:15:00
UTC Time2019-10-22 13:26:35
Flight Rules lifr LIFR
Wind170° at 07 Gusting to 13 kt
W.Decomp.*RWY 24: 3.2 kt HW 6.2 kt LCW
Visibility9999 m
Phenomena:N/A
Clouds:Overcast 004 Hf
Ceiling400 ft
Temp20°C (ISA +6)
Dew Point20°C (100% RH)
QNH1013 hPa
Density Alt1,499 ft
Elevation489 ft
Report Wrong Elevation
Raw Report
KLKR 221315Z AUTO 17007G13KT 10SM OVC004 20/20 A2991 RMK AO2=

Extra information for KLKR:More info

Metar Taf Metar & Taf Last 4 Metars F.Rules Stats Wind Profile Meteogram Temp Stats Airport Information Weather charts Add Link Nearby VenuesMetar ALERT Operation Metar Decoded Social comments

AIRNAV info for KLKR